createdAt,value
2023-01-21T00:01:47.526Z,12.77
2023-01-21T00:04:15.187Z,13.18
2023-01-21T00:06:43.293Z,12.80
2023-01-21T00:09:10.975Z,12.05
2023-01-21T00:11:38.600Z,12.40
2023-01-21T00:14:07.625Z,11.02
2023-01-21T00:16:35.421Z,12.30
2023-01-21T00:19:03.060Z,12.70
2023-01-21T00:21:30.639Z,11.80
2023-01-21T00:23:58.230Z,12.68
2023-01-21T00:26:25.955Z,11.93
2023-01-21T00:28:53.617Z,11.57
2023-01-21T00:31:22.604Z,11.73
2023-01-21T00:33:50.398Z,11.63
2023-01-21T00:36:18.693Z,11.70
2023-01-21T00:38:49.744Z,12.02
2023-01-21T00:41:18.146Z,11.25
2023-01-21T00:43:45.900Z,10.88
2023-01-21T00:46:13.533Z,10.70
2023-01-21T00:48:42.588Z,10.70
2023-01-21T00:51:11.044Z,10.00
2023-01-21T00:53:41.814Z,9.40
2023-01-21T00:56:12.708Z,8.57
2023-01-21T00:58:43.248Z,8.60
2023-01-21T01:01:12.978Z,7.80
2023-01-21T01:03:42.392Z,8.15
2023-01-21T01:06:12.548Z,7.57
2023-01-21T01:08:40.591Z,8.65
2023-01-21T01:11:08.232Z,9.75
2023-01-21T01:13:36.946Z,10.00
2023-01-21T01:16:05.474Z,9.75
2023-01-21T01:18:35.084Z,9.70
2023-01-21T01:21:06.212Z,10.38
2023-01-21T01:23:33.867Z,10.63
2023-01-21T01:26:03.282Z,9.95
2023-01-21T01:28:32.210Z,9.57
2023-01-21T01:31:00.196Z,9.77
2023-01-21T01:33:28.532Z,9.80
2023-01-21T01:35:56.135Z,9.30
2023-01-21T01:38:25.035Z,9.70
2023-01-21T01:40:53.675Z,9.60
2023-01-21T01:43:24.309Z,9.38
2023-01-21T01:45:52.797Z,9.73
2023-01-21T01:48:24.530Z,9.85
2023-01-21T01:50:52.624Z,9.55
2023-01-21T01:53:20.787Z,10.57
2023-01-21T01:55:50.194Z,11.68
2023-01-21T01:58:20.136Z,12.80
2023-01-21T02:00:47.839Z,12.65
2023-01-21T02:03:33.769Z,13.20
2023-01-21T02:06:01.672Z,12.90
2023-01-21T02:08:30.321Z,12.70
2023-01-21T02:11:00.939Z,13.05
2023-01-21T02:13:31.529Z,13.50
2023-01-21T02:16:14.827Z,12.90
2023-01-21T02:18:51.750Z,13.55
2023-01-21T02:21:48.897Z,13.50
2023-01-21T02:24:50.409Z,14.52
2023-01-21T02:27:35.309Z,13.38
2023-01-21T02:30:31.577Z,12.77
2023-01-21T02:33:15.651Z,12.63
2023-01-21T02:35:50.538Z,13.00
2023-01-21T02:38:26.132Z,12.65
2023-01-21T02:41:03.784Z,13.10
2023-01-21T02:43:40.980Z,12.18
2023-01-21T02:46:17.330Z,12.25
2023-01-21T02:48:51.302Z,12.55
2023-01-21T02:51:20.371Z,12.40
2023-01-21T02:53:48.697Z,11.50
2023-01-21T02:56:20.093Z,11.68
2023-01-21T02:58:51.629Z,10.90
2023-01-21T03:01:27.532Z,11.00
2023-01-21T03:04:08.690Z,11.05
2023-01-21T03:06:50.155Z,11.30
2023-01-21T03:09:23.275Z,10.63
2023-01-21T03:12:00.892Z,10.43
2023-01-21T03:14:50.250Z,9.73
2023-01-21T03:17:25.821Z,9.43
2023-01-21T03:20:00.768Z,8.85
2023-01-21T03:22:34.926Z,7.93
2023-01-21T03:25:04.167Z,8.05
2023-01-21T03:27:34.025Z,7.75
2023-01-21T03:30:07.159Z,7.10
2023-01-21T03:32:36.809Z,6.65
2023-01-21T03:35:08.668Z,6.53
2023-01-21T03:37:41.780Z,6.22
2023-01-21T03:40:20.061Z,6.00
2023-01-21T03:42:50.392Z,6.05
2023-01-21T03:45:22.904Z,5.60
2023-01-21T03:47:55.815Z,5.78
2023-01-21T03:50:31.034Z,6.30
2023-01-21T03:52:58.766Z,6.70
2023-01-21T03:55:26.409Z,6.55
2023-01-21T03:57:54.169Z,7.07
2023-01-21T04:00:22.248Z,7.90
2023-01-21T04:02:49.857Z,9.35
2023-01-21T04:05:17.634Z,11.30
2023-01-21T04:07:46.527Z,12.27
2023-01-21T04:10:14.443Z,13.07
2023-01-21T04:12:42.167Z,14.32
2023-01-21T04:15:11.159Z,14.93
2023-01-21T04:17:38.791Z,16.05
2023-01-21T04:20:08.383Z,17.53
2023-01-21T04:22:38.074Z,17.88
2023-01-21T04:25:07.454Z,19.35
2023-01-21T04:27:35.029Z,19.92
2023-01-21T04:30:02.584Z,21.70
2023-01-21T04:32:30.118Z,22.08
2023-01-21T04:34:57.654Z,22.63
2023-01-21T04:37:25.408Z,22.80
2023-01-21T04:39:53.139Z,23.88
2023-01-21T04:42:22.222Z,23.77
2023-01-21T04:44:49.768Z,24.70
2023-01-21T04:47:17.363Z,26.00
2023-01-21T04:49:44.984Z,25.15
2023-01-21T04:52:12.626Z,25.73
2023-01-21T04:54:40.236Z,27.02
2023-01-21T04:57:07.785Z,25.30
2023-01-21T04:59:36.891Z,25.08
2023-01-21T05:02:04.865Z,25.92
2023-01-21T05:04:32.830Z,25.55
2023-01-21T05:07:00.494Z,25.25
2023-01-21T05:09:28.108Z,26.05
2023-01-21T05:11:55.756Z,25.42
2023-01-21T05:14:23.401Z,25.17
2023-01-21T05:16:52.388Z,25.17
2023-01-21T05:19:20.168Z,26.20
2023-01-21T05:21:47.878Z,24.60
2023-01-21T05:24:15.864Z,25.85
2023-01-21T05:26:43.537Z,24.80
2023-01-21T05:29:11.844Z,24.37
2023-01-21T05:31:39.676Z,23.73
2023-01-21T05:34:08.873Z,24.42
2023-01-21T05:36:36.566Z,23.15
2023-01-21T05:39:04.648Z,23.45
2023-01-21T05:41:32.867Z,23.73
2023-01-21T05:44:00.485Z,23.85
2023-01-21T05:46:28.126Z,24.05
2023-01-21T05:48:55.691Z,24.07
2023-01-21T05:51:24.638Z,24.50
2023-01-21T05:53:52.278Z,25.25
2023-01-21T05:56:19.888Z,23.58
2023-01-21T05:58:47.623Z,25.08
2023-01-21T06:01:15.181Z,23.83
2023-01-21T06:03:42.808Z,23.98
2023-01-21T06:06:10.380Z,22.90
2023-01-21T06:08:39.262Z,22.33
2023-01-21T06:11:06.826Z,22.40
2023-01-21T06:13:34.395Z,21.92
2023-01-21T06:16:01.961Z,21.83
2023-01-21T06:18:29.889Z,21.40
2023-01-21T06:20:59.950Z,21.42
2023-01-21T06:23:28.347Z,22.08
2023-01-21T06:26:01.503Z,22.77
2023-01-21T06:28:29.603Z,24.25
2023-01-21T06:30:57.685Z,22.02
2023-01-21T06:33:25.445Z,21.80
2023-01-21T06:35:53.015Z,22.92
2023-01-21T06:38:20.601Z,20.25
2023-01-21T06:40:48.237Z,20.45
2023-01-21T06:43:17.164Z,18.90
2023-01-21T06:45:45.015Z,19.10
2023-01-21T06:48:12.576Z,20.15
2023-01-21T06:50:40.124Z,17.20
2023-01-21T06:53:07.722Z,16.93
2023-01-21T06:55:35.321Z,17.50
2023-01-21T06:58:03.485Z,17.17
2023-01-21T07:00:32.601Z,16.40
2023-01-21T07:03:01.209Z,16.35
2023-01-21T07:05:29.229Z,16.88
2023-01-21T07:07:57.803Z,18.27
2023-01-21T07:10:26.148Z,18.80
2023-01-21T07:12:53.708Z,19.50
2023-01-21T07:15:21.435Z,19.25
2023-01-21T07:17:50.483Z,18.70
2023-01-21T07:20:18.729Z,17.58
2023-01-21T07:22:46.298Z,16.23
2023-01-21T07:25:13.848Z,17.10
2023-01-21T07:27:42.466Z,15.88
2023-01-21T07:30:16.183Z,17.00
2023-01-21T07:32:44.166Z,16.10
2023-01-21T07:35:13.380Z,16.20
2023-01-21T07:37:41.202Z,15.77
2023-01-21T07:40:10.200Z,17.20
2023-01-21T07:42:37.744Z,14.70
2023-01-21T07:45:06.205Z,15.23
2023-01-21T07:47:33.840Z,14.20
2023-01-21T07:50:04.850Z,14.20
2023-01-21T07:52:34.194Z,15.05
2023-01-21T07:55:02.133Z,15.67
2023-01-21T07:57:29.755Z,15.95
2023-01-21T07:59:57.301Z,15.53
2023-01-21T08:02:25.509Z,15.15
2023-01-21T08:04:53.209Z,14.73
2023-01-21T08:07:20.759Z,14.13
2023-01-21T08:09:49.699Z,14.05
2023-01-21T08:12:17.382Z,14.38
2023-01-21T08:14:45.130Z,15.30
2023-01-21T08:17:12.840Z,14.93
2023-01-21T08:19:40.465Z,15.38
2023-01-21T08:22:07.997Z,14.50
2023-01-21T08:24:35.522Z,15.48
2023-01-21T08:27:04.586Z,14.90
2023-01-21T08:29:32.157Z,15.02
2023-01-21T08:31:59.799Z,15.80
2023-01-21T08:34:27.724Z,16.10
2023-01-21T08:36:55.273Z,15.02
2023-01-21T08:39:22.817Z,15.80
2023-01-21T08:41:50.406Z,17.02
2023-01-21T08:44:19.400Z,16.17
2023-01-21T08:46:46.987Z,16.48
2023-01-21T08:49:14.558Z,16.37
2023-01-21T08:51:42.673Z,15.83
2023-01-21T08:54:10.258Z,16.65
2023-01-21T08:56:37.827Z,18.00
2023-01-21T08:59:05.737Z,17.08
2023-01-21T09:01:36.147Z,17.38
2023-01-21T09:04:03.746Z,16.92
2023-01-21T09:06:31.327Z,17.63
2023-01-21T09:08:59.313Z,16.67
2023-01-21T09:11:27.622Z,16.63
2023-01-21T09:13:56.787Z,15.30
2023-01-21T09:16:24.426Z,15.77
2023-01-21T09:18:53.321Z,15.65
2023-01-21T09:21:20.959Z,14.77
2023-01-21T09:23:48.609Z,14.82
2023-01-21T09:26:17.613Z,14.38
2023-01-21T09:28:47.705Z,14.00
2023-01-21T09:31:18.185Z,13.93
2023-01-21T09:33:48.173Z,13.93
2023-01-21T09:36:19.635Z,13.65
2023-01-21T09:38:48.602Z,14.25
2023-01-21T09:41:24.413Z,13.20
2023-01-21T09:43:59.948Z,13.93
2023-01-21T09:46:35.989Z,12.98
2023-01-21T09:49:06.662Z,13.68
2023-01-21T09:51:52.197Z,13.45
2023-01-21T09:54:26.609Z,14.05
2023-01-21T09:57:29.485Z,13.15
2023-01-21T10:00:09.664Z,13.60
2023-01-21T10:02:44.449Z,14.13
2023-01-21T10:05:40.419Z,14.00
2023-01-21T10:08:19.054Z,14.02
2023-01-21T10:10:51.621Z,20.02
2023-01-21T10:13:41.393Z,15.23
2023-01-21T10:16:15.324Z,14.25
2023-01-21T10:18:46.872Z,13.90
2023-01-21T10:21:29.954Z,13.77
2023-01-21T10:24:04.465Z,13.93
2023-01-21T10:26:35.377Z,13.45
2023-01-21T10:29:03.669Z,13.40
2023-01-21T10:31:35.084Z,13.70
2023-01-21T10:34:03.388Z,13.40
2023-01-21T10:36:51.551Z,12.10
2023-01-21T10:39:32.762Z,12.65
2023-01-21T10:42:29.559Z,13.18
2023-01-21T10:45:02.598Z,12.98
2023-01-21T10:47:39.774Z,13.20
2023-01-21T10:50:29.546Z,12.82
2023-01-21T10:53:02.027Z,12.93
2023-01-21T10:55:41.937Z,11.73
2023-01-21T10:58:21.147Z,12.85
2023-01-21T11:00:50.958Z,12.32
2023-01-21T11:03:28.719Z,12.25
2023-01-21T11:05:56.579Z,11.73
2023-01-21T11:08:27.006Z,12.40
2023-01-21T11:10:57.776Z,12.55
2023-01-21T11:13:25.472Z,13.27
2023-01-21T11:15:55.649Z,12.82
2023-01-21T11:18:29.231Z,12.52
2023-01-21T11:20:59.675Z,13.20
2023-01-21T11:23:29.896Z,14.55
2023-01-21T11:26:10.120Z,13.85
2023-01-21T11:28:38.020Z,12.55
2023-01-21T11:31:10.984Z,13.32
2023-01-21T11:33:40.309Z,13.35
2023-01-21T11:36:14.004Z,13.70
2023-01-21T11:38:43.067Z,13.60
2023-01-21T11:41:22.341Z,13.20
2023-01-21T11:43:52.271Z,11.82
2023-01-21T11:46:38.543Z,11.45
2023-01-21T11:49:29.024Z,14.27
2023-01-21T11:52:16.767Z,12.82
2023-01-21T11:54:44.665Z,12.88
2023-01-21T11:57:30.292Z,12.75
2023-01-21T12:00:07.502Z,13.05
2023-01-21T12:02:40.832Z,13.13
2023-01-21T12:05:15.391Z,13.13
2023-01-21T12:07:44.337Z,13.65
2023-01-21T12:10:25.591Z,13.43
2023-01-21T12:13:09.676Z,13.05
2023-01-21T12:15:49.814Z,13.90
2023-01-21T12:18:27.323Z,13.00
2023-01-21T12:21:02.811Z,12.85
2023-01-21T12:23:43.939Z,13.48
2023-01-21T12:26:25.465Z,12.65
2023-01-21T12:29:11.488Z,12.63
2023-01-21T12:31:43.586Z,13.43
2023-01-21T12:34:17.533Z,13.07
2023-01-21T12:36:50.666Z,14.02
2023-01-21T12:39:22.238Z,14.27
2023-01-21T12:42:01.659Z,13.55
2023-01-21T12:44:36.239Z,14.18
2023-01-21T12:47:11.159Z,13.80
2023-01-21T12:50:04.623Z,14.57
2023-01-21T12:52:40.765Z,16.48
2023-01-21T12:55:19.433Z,15.55
2023-01-21T12:57:54.744Z,15.00
2023-01-21T13:00:28.216Z,12.82
2023-01-21T13:03:04.289Z,14.75
2023-01-21T13:05:39.655Z,13.88
2023-01-21T13:08:33.271Z,15.43
2023-01-21T13:11:07.015Z,14.27
2023-01-21T13:13:37.148Z,14.43
2023-01-21T13:16:09.842Z,14.37
2023-01-21T13:18:40.244Z,14.50
2023-01-21T13:21:17.410Z,15.48
2023-01-21T13:23:49.409Z,14.60
2023-01-21T13:26:24.212Z,13.67
2023-01-21T13:28:58.610Z,12.70
2023-01-21T13:31:32.476Z,12.82
2023-01-21T13:34:05.859Z,12.82
2023-01-21T13:36:57.475Z,12.05
2023-01-21T13:39:33.345Z,12.03
2023-01-21T13:42:17.286Z,12.53
2023-01-21T13:45:15.152Z,12.68
2023-01-21T13:48:12.007Z,11.32
2023-01-21T13:50:54.673Z,11.68
2023-01-21T13:53:39.430Z,11.65
2023-01-21T13:56:22.899Z,10.25
2023-01-21T13:58:54.652Z,9.85
2023-01-21T14:01:29.049Z,9.85
2023-01-21T14:04:04.507Z,9.82
2023-01-21T14:06:38.076Z,9.03
2023-01-21T14:09:14.089Z,9.55
2023-01-21T14:11:45.351Z,8.40
2023-01-21T14:14:31.357Z,8.55
2023-01-21T14:17:32.588Z,8.32
2023-01-21T14:20:18.616Z,8.90
2023-01-21T14:23:16.120Z,8.05
2023-01-21T14:26:07.246Z,7.38
2023-01-21T14:28:40.153Z,8.02
2023-01-21T14:31:13.437Z,8.10
2023-01-21T14:33:46.689Z,8.73
2023-01-21T14:36:19.483Z,7.97
2023-01-21T14:38:58.709Z,7.90
2023-01-21T14:41:47.301Z,8.18
2023-01-21T14:44:37.134Z,7.78
2023-01-21T14:47:19.559Z,7.90
2023-01-21T14:49:49.019Z,8.55
2023-01-21T14:52:19.907Z,8.57
2023-01-21T14:54:48.746Z,8.20
2023-01-21T14:57:27.424Z,7.75
2023-01-21T15:00:02.745Z,7.60
2023-01-21T15:02:33.391Z,8.93
2023-01-21T15:05:03.461Z,9.55
2023-01-21T15:07:36.209Z,8.60
2023-01-21T15:10:11.354Z,7.93
2023-01-21T15:12:40.746Z,7.75
2023-01-21T15:15:31.552Z,8.07
2023-01-21T15:18:23.108Z,7.38
2023-01-21T15:20:57.671Z,8.38
2023-01-21T15:23:39.910Z,8.50
2023-01-21T15:26:34.450Z,8.13
2023-01-21T15:29:23.337Z,8.35
2023-01-21T15:31:51.122Z,7.10
2023-01-21T15:34:20.575Z,7.70
2023-01-21T15:36:52.931Z,7.30
2023-01-21T15:39:29.972Z,7.65
2023-01-21T15:42:10.525Z,6.70
2023-01-21T15:44:52.748Z,6.65
2023-01-21T15:47:41.562Z,7.28
2023-01-21T15:50:20.955Z,7.55
2023-01-21T15:53:03.945Z,8.90
2023-01-21T15:55:58.168Z,9.93
2023-01-21T15:58:39.557Z,22.48
2023-01-21T16:01:15.813Z,17.53
2023-01-21T16:04:05.201Z,11.93
2023-01-21T16:06:42.582Z,9.27
2023-01-21T16:09:18.148Z,20.13
2023-01-21T16:11:59.976Z,11.73
2023-01-21T16:14:41.463Z,12.00
2023-01-21T16:17:17.693Z,11.35
2023-01-21T16:19:48.683Z,20.30
2023-01-21T16:22:21.483Z,11.57
2023-01-21T16:24:53.612Z,12.70
2023-01-21T16:27:25.455Z,9.65
2023-01-21T16:29:57.259Z,12.43
2023-01-21T16:32:26.851Z,8.52
2023-01-21T16:34:55.375Z,11.30
2023-01-21T16:37:26.172Z,15.65
2023-01-21T16:39:56.622Z,11.40
2023-01-21T16:42:32.000Z,10.10
2023-01-21T16:45:00.242Z,8.25
2023-01-21T16:47:31.337Z,9.10
2023-01-21T16:49:59.020Z,8.47
2023-01-21T16:52:27.965Z,8.32
2023-01-21T16:54:56.850Z,8.37
2023-01-21T16:57:31.515Z,7.07
2023-01-21T17:00:02.273Z,7.50
2023-01-21T17:02:33.150Z,7.77
2023-01-21T17:05:04.545Z,8.27
2023-01-21T17:07:35.376Z,9.52
2023-01-21T17:10:06.671Z,17.15
2023-01-21T17:12:36.551Z,10.90
2023-01-21T17:15:15.597Z,20.52
2023-01-21T17:17:43.561Z,16.63
2023-01-21T17:20:36.463Z,9.80
2023-01-21T17:23:06.748Z,36.33
2023-01-21T17:25:36.424Z,11.68
2023-01-21T17:28:19.921Z,10.20
2023-01-21T17:30:47.804Z,9.52
2023-01-21T17:33:30.455Z,8.82
2023-01-21T17:36:10.458Z,9.85
2023-01-21T17:38:42.666Z,9.43
2023-01-21T17:41:22.459Z,9.63
2023-01-21T17:43:55.428Z,9.98
2023-01-21T17:46:23.698Z,8.77
2023-01-21T17:48:54.273Z,8.23
2023-01-21T17:51:24.509Z,8.07
2023-01-21T17:53:56.392Z,7.83
2023-01-21T17:56:42.084Z,7.70
2023-01-21T17:59:38.644Z,8.67
2023-01-21T18:02:11.048Z,8.60
2023-01-21T18:04:38.660Z,8.90
2023-01-21T18:07:16.559Z,8.68
2023-01-21T18:09:44.260Z,7.68
2023-01-21T18:12:12.182Z,7.80
2023-01-21T18:14:41.742Z,7.60
2023-01-21T18:17:11.162Z,7.72
2023-01-21T18:19:42.134Z,8.05
2023-01-21T18:22:21.310Z,7.47
2023-01-21T18:24:48.877Z,8.27
2023-01-21T18:27:17.101Z,7.20
2023-01-21T18:29:46.062Z,6.95
2023-01-21T18:32:15.366Z,7.00
2023-01-21T18:34:43.047Z,6.93
2023-01-21T18:37:15.011Z,7.27
2023-01-21T18:39:42.904Z,7.18
2023-01-21T18:42:12.899Z,7.35
2023-01-21T18:44:40.590Z,6.35
2023-01-21T18:47:13.465Z,6.90
2023-01-21T18:49:41.556Z,6.25
2023-01-21T18:52:11.260Z,8.20
2023-01-21T18:54:38.811Z,8.75
2023-01-21T18:57:10.788Z,7.70
2023-01-21T18:59:38.497Z,6.80
2023-01-21T19:02:13.700Z,6.97
2023-01-21T19:04:41.392Z,7.20
2023-01-21T19:07:14.798Z,7.40
2023-01-21T19:09:45.937Z,6.22
2023-01-21T19:12:14.353Z,7.40
2023-01-21T19:14:42.014Z,6.85
2023-01-21T19:17:13.635Z,11.87
2023-01-21T19:19:41.742Z,7.70
2023-01-21T19:22:13.528Z,13.35
2023-01-21T19:24:41.198Z,39.50
2023-01-21T19:27:11.159Z,18.83
2023-01-21T19:29:38.719Z,8.83
2023-01-21T19:32:07.945Z,9.18
2023-01-21T19:34:37.356Z,16.83
2023-01-21T19:37:05.214Z,9.70
2023-01-21T19:39:34.386Z,7.38
2023-01-21T19:42:08.383Z,17.80
2023-01-21T19:44:36.503Z,9.95
2023-01-21T19:47:04.426Z,15.30
2023-01-21T19:49:32.203Z,24.50
2023-01-21T19:52:01.316Z,23.67
2023-01-21T19:54:29.143Z,7.50
2023-01-21T19:56:56.923Z,22.00
2023-01-21T19:59:24.510Z,11.43
2023-01-21T20:01:52.187Z,7.18
2023-01-21T20:04:19.853Z,11.18
2023-01-21T20:06:47.543Z,13.98
2023-01-21T20:09:18.805Z,19.50
2023-01-21T20:11:46.412Z,8.40
2023-01-21T20:14:14.098Z,9.70
2023-01-21T20:16:46.065Z,9.30
2023-01-21T20:19:17.045Z,14.25
2023-01-21T20:21:59.666Z,8.85
2023-01-21T20:24:33.726Z,6.90
2023-01-21T20:27:03.219Z,7.15
2023-01-21T20:29:30.824Z,7.65
2023-01-21T20:31:58.545Z,10.10
2023-01-21T20:34:27.663Z,8.48
2023-01-21T20:36:56.127Z,9.25
2023-01-21T20:39:24.185Z,8.48
2023-01-21T20:41:53.134Z,7.65
2023-01-21T20:44:20.770Z,8.85
2023-01-21T20:46:48.644Z,7.18
2023-01-21T20:49:16.400Z,6.53
2023-01-21T20:51:43.968Z,6.95
2023-01-21T20:54:11.546Z,6.20
2023-01-21T20:56:39.266Z,6.00
2023-01-21T20:59:10.035Z,6.50
2023-01-21T21:01:39.348Z,7.00
2023-01-21T21:04:07.076Z,6.32
2023-01-21T21:06:34.675Z,6.30
2023-01-21T21:09:02.384Z,7.10
2023-01-21T21:11:29.952Z,6.85
2023-01-21T21:13:58.520Z,6.85
2023-01-21T21:16:31.751Z,7.43
2023-01-21T21:19:00.655Z,9.90
2023-01-21T21:21:29.212Z,9.70
2023-01-21T21:23:56.839Z,7.20
2023-01-21T21:26:27.241Z,8.70
2023-01-21T21:28:55.520Z,8.05
2023-01-21T21:31:24.171Z,8.82
2023-01-21T21:33:53.324Z,8.05
2023-01-21T21:36:23.029Z,7.97
2023-01-21T21:38:52.127Z,8.10
2023-01-21T21:41:39.453Z,8.15
2023-01-21T21:44:07.996Z,7.97
2023-01-21T21:46:50.975Z,8.25
2023-01-21T21:49:19.987Z,8.43
2023-01-21T21:51:47.584Z,9.00
2023-01-21T21:54:18.356Z,8.00
2023-01-21T21:56:46.364Z,9.02
2023-01-21T21:59:14.668Z,9.13
2023-01-21T22:01:43.544Z,8.00
2023-01-21T22:04:11.899Z,8.75
2023-01-21T22:06:41.206Z,7.88
2023-01-21T22:09:09.545Z,7.45
2023-01-21T22:11:37.304Z,7.70
2023-01-21T22:14:05.013Z,7.85
2023-01-21T22:16:33.396Z,7.80
2023-01-21T22:19:01.773Z,7.88
2023-01-21T22:21:32.698Z,8.52
2023-01-21T22:24:02.716Z,8.75
2023-01-21T22:26:30.901Z,8.55
2023-01-21T22:28:58.711Z,8.25
2023-01-21T22:31:28.972Z,8.50
2023-01-21T22:33:57.477Z,8.60
2023-01-21T22:36:26.887Z,8.73
2023-01-21T22:38:55.202Z,9.45
2023-01-21T22:41:25.193Z,7.90
2023-01-21T22:43:53.567Z,7.90
2023-01-21T22:46:23.014Z,7.95
2023-01-21T22:48:51.032Z,9.40
2023-01-21T22:51:21.219Z,9.07
2023-01-21T22:53:49.789Z,9.98
2023-01-21T22:56:19.034Z,10.25
2023-01-21T22:58:48.170Z,9.23
2023-01-21T23:01:25.397Z,8.93
2023-01-21T23:03:53.461Z,9.63
2023-01-21T23:06:21.201Z,11.02
2023-01-21T23:08:49.186Z,10.35
2023-01-21T23:11:18.734Z,9.80
2023-01-21T23:13:49.216Z,11.10
2023-01-21T23:16:20.911Z,9.55
2023-01-21T23:18:48.875Z,9.77
2023-01-21T23:21:18.857Z,9.48
2023-01-21T23:23:46.553Z,10.23
2023-01-21T23:26:14.803Z,9.20
2023-01-21T23:28:43.111Z,9.32
2023-01-21T23:31:14.635Z,9.52
2023-01-21T23:33:42.749Z,9.52
2023-01-21T23:36:13.132Z,9.27
2023-01-21T23:38:41.764Z,8.73
2023-01-21T23:41:11.890Z,8.60
2023-01-21T23:43:39.767Z,8.50
2023-01-21T23:46:08.267Z,8.45
2023-01-21T23:48:37.265Z,9.43
2023-01-21T23:51:06.726Z,8.53
2023-01-21T23:53:35.145Z,9.52
2023-01-21T23:56:07.593Z,8.95
2023-01-21T23:58:35.326Z,8.05
